sensor_id;sensor_type;location;lat;lon;timestamp;pressure;altitude;pressure_sealevel;temperature;humidity
31096;BME280;17749;51.962;8.560;2023-04-06T05:02:07;100229.75;;;-0.45;100.00
31096;BME280;17749;51.962;8.560;2023-04-06T05:04:46;100232.38;;;-0.45;100.00
31096;BME280;17749;51.962;8.560;2023-04-06T05:07:19;100234.97;;;-0.45;100.00
31096;BME280;17749;51.962;8.560;2023-04-06T05:09:48;100237.59;;;-0.45;100.00
31096;BME280;17749;51.962;8.560;2023-04-06T05:12:16;100234.09;;;-0.43;100.00
31096;BME280;17749;51.962;8.560;2023-04-06T05:15:02;100229.75;;;-0.43;100.00
31096;BME280;17749;51.962;8.560;2023-04-06T05:17:42;100239.34;;;-0.40;100.00
31096;BME280;17749;51.962;8.560;2023-04-06T05:20:14;100237.63;;;-0.38;100.00
31096;BME280;17749;51.962;8.560;2023-04-06T05:22:47;100234.19;;;-0.31;100.00
31096;BME280;17749;51.962;8.560;2023-04-06T05:25:14;100236.81;;;-0.27;100.00
31096;BME280;17749;51.962;8.560;2023-04-06T05:27:44;100238.59;;;-0.19;100.00
31096;BME280;17749;51.962;8.560;2023-04-06T05:30:25;100244.75;;;-0.13;100.00
31096;BME280;17749;51.962;8.560;2023-04-06T05:32:54;100247.38;;;-0.11;100.00
31096;BME280;17749;51.962;8.560;2023-04-06T05:35:24;100244.78;;;-0.07;100.00
31096;BME280;17749;51.962;8.560;2023-04-06T05:37:55;100243.97;;;0.05;100.00
31096;BME280;17749;51.962;8.560;2023-04-06T05:40:24;100237.84;;;0.08;100.00
31096;BME280;17749;51.962;8.560;2023-04-06T05:42:52;100233.53;;;0.14;100.00
31096;BME280;17749;51.962;8.560;2023-04-06T05:45:20;100234.47;;;0.21;100.00
31096;BME280;17749;51.962;8.560;2023-04-06T05:48:04;100237.06;;;0.29;100.00
31096;BME280;17749;51.962;8.560;2023-04-06T05:50:32;100240.59;;;0.31;100.00
31096;BME280;17749;51.962;8.560;2023-04-06T05:53:00;100246.75;;;0.40;100.00
31096;BME280;17749;51.962;8.560;2023-04-06T05:55:34;100235.41;;;0.52;100.00
31096;BME280;17749;51.962;8.560;2023-04-06T05:58:10;100242.41;;;0.59;100.00
31096;BME280;17749;51.962;8.560;2023-04-06T06:00:36;100244.19;;;0.67;100.00
31096;BME280;17749;51.962;8.560;2023-04-06T06:03:06;100232.88;;;0.74;100.00
31096;BME280;17749;51.962;8.560;2023-04-06T06:05:37;100235.47;;;0.80;100.00
31096;BME280;17749;51.962;8.560;2023-04-06T06:08:09;100231.13;;;0.86;100.00
31096;BME280;17749;51.962;8.560;2023-04-06T06:10:39;100223.25;;;0.96;100.00
31096;BME280;17749;51.962;8.560;2023-04-06T06:13:09;100228.53;;;1.05;100.00
31096;BME280;17749;51.962;8.560;2023-04-06T06:15:39;100236.38;;;1.14;100.00
31096;BME280;17749;51.962;8.560;2023-04-06T06:18:06;100231.16;;;1.26;100.00
31096;BME280;17749;51.962;8.560;2023-04-06T06:20:33;100232.00;;;1.30;100.00
31096;BME280;17749;51.962;8.560;2023-04-06T06:23:03;100227.63;;;1.46;100.00
31096;BME280;17749;51.962;8.560;2023-04-06T06:25:32;100225.88;;;1.51;100.00
31096;BME280;17749;51.962;8.560;2023-04-06T06:27:59;100221.47;;;1.68;100.00
31096;BME280;17749;51.962;8.560;2023-04-06T06:30:29;100230.19;;;1.83;100.00
31096;BME280;17749;51.962;8.560;2023-04-06T06:32:59;100234.53;;;1.96;100.00
31096;BME280;17749;51.962;8.560;2023-04-06T06:35:27;100227.47;;;2.12;100.00
31096;BME280;17749;51.962;8.560;2023-04-06T06:37:54;100230.03;;;2.33;100.00
31096;BME280;17749;51.962;8.560;2023-04-06T06:40:25;100217.69;;;2.49;100.00
31096;BME280;17749;51.962;8.560;2023-04-06T06:42:57;100223.66;;;2.70;100.00
31096;BME280;17749;51.962;8.560;2023-04-06T06:45:33;100232.25;;;2.99;100.00
31096;BME280;17749;51.962;8.560;2023-04-06T06:48:03;100229.44;;;3.25;100.00
31096;BME280;17749;51.962;8.560;2023-04-06T06:50:30;100228.41;;;3.43;100.00
31096;BME280;17749;51.962;8.560;2023-04-06T06:52:57;100219.44;;;3.64;100.00
31096;BME280;17749;51.962;8.560;2023-04-06T06:55:24;100220.06;;;3.88;100.00
31096;BME280;17749;51.962;8.560;2023-04-06T06:57:53;100220.59;;;4.17;100.00
31096;BME280;17749;51.962;8.560;2023-04-06T07:00:21;100215.91;;;4.39;100.00
31096;BME280;17749;51.962;8.560;2023-04-06T07:02:50;100213.03;;;4.58;100.00
31096;BME280;17749;51.962;8.560;2023-04-06T07:05:18;100220.56;;;4.84;100.00
31096;BME280;17749;51.962;8.560;2023-04-06T07:07:57;100212.16;;;5.16;100.00
31096;BME280;17749;51.962;8.560;2023-04-06T07:10:25;100219.53;;;5.48;100.00
31096;BME280;17749;51.962;8.560;2023-04-06T07:12:52;100218.06;;;5.82;99.42
31096;BME280;17749;51.962;8.560;2023-04-06T07:15:20;100217.47;;;6.12;100.00
31096;BME280;17749;51.962;8.560;2023-04-06T07:17:47;100214.28;;;6.40;96.85
31096;BME280;17749;51.962;8.560;2023-04-06T07:20:14;100201.25;;;6.71;95.82
31096;BME280;17749;51.962;8.560;2023-04-06T07:22:42;100212.19;;;6.93;93.62
31096;BME280;17749;51.962;8.560;2023-04-06T07:25:09;100208.06;;;7.19;92.93
31096;BME280;17749;51.962;8.560;2023-04-06T07:27:37;100213.47;;;7.50;92.88
31096;BME280;17749;51.962;8.560;2023-04-06T07:30:04;100210.13;;;7.76;89.81
31096;BME280;17749;51.962;8.560;2023-04-06T07:32:32;100208.59;;;7.99;87.02
31096;BME280;17749;51.962;8.560;2023-04-06T07:35:02;100200.75;;;8.27;85.04
31096;BME280;17749;51.962;8.560;2023-04-06T07:37:29;100210.81;;;8.47;84.49
31096;BME280;17749;51.962;8.560;2023-04-06T07:39:56;100209.25;;;8.69;85.56
31096;BME280;17749;51.962;8.560;2023-04-06T07:42:23;100201.50;;;8.91;83.30
31096;BME280;17749;51.962;8.560;2023-04-06T07:44:50;100207.22;;;9.06;82.32
31096;BME280;17749;51.962;8.560;2023-04-06T07:47:18;100206.69;;;9.23;78.45
31096;BME280;17749;51.962;8.560;2023-04-06T07:49:45;100201.66;;;9.40;80.48
31096;BME280;17749;51.962;8.560;2023-04-06T07:52:12;100200.13;;;9.59;79.76
31096;BME280;17749;51.962;8.560;2023-04-06T07:54:41;100199.06;;;9.63;76.24
31096;BME280;17749;51.962;8.560;2023-04-06T07:57:08;100189.31;;;9.89;78.34
31096;BME280;17749;51.962;8.560;2023-04-06T07:59:35;100176.78;;;10.16;77.04
31096;BME280;17749;51.962;8.560;2023-04-06T08:02:03;100185.47;;;10.46;77.16
31096;BME280;17749;51.962;8.560;2023-04-06T08:04:30;100185.09;;;10.56;74.22
31096;BME280;17749;51.962;8.560;2023-04-06T08:06:56;100185.91;;;10.34;72.10
31096;BME280;17749;51.962;8.560;2023-04-06T08:09:23;100187.72;;;10.08;70.36
31096;BME280;17749;51.962;8.560;2023-04-06T08:11:51;100183.56;;;10.01;72.78
31096;BME280;17749;51.962;8.560;2023-04-06T08:14:17;100183.69;;;9.98;73.87
31096;BME280;17749;51.962;8.560;2023-04-06T08:16:44;100184.88;;;10.13;75.25
31096;BME280;17749;51.962;8.560;2023-04-06T08:19:11;100184.59;;;10.21;74.32
31096;BME280;17749;51.962;8.560;2023-04-06T08:21:39;100186.44;;;10.19;71.68
31096;BME280;17749;51.962;8.560;2023-04-06T08:24:06;100175.03;;;10.17;73.28
31096;BME280;17749;51.962;8.560;2023-04-06T08:26:34;100181.25;;;10.16;74.04
31096;BME280;17749;51.962;8.560;2023-04-06T08:29:01;100177.06;;;10.34;75.07
31096;BME280;17749;51.962;8.560;2023-04-06T08:31:28;100178.50;;;10.42;74.00
31096;BME280;17749;51.962;8.560;2023-04-06T08:33:55;100182.63;;;10.51;71.46
31096;BME280;17749;51.962;8.560;2023-04-06T08:36:22;100179.53;;;10.62;73.44
31096;BME280;17749;51.962;8.560;2023-04-06T08:38:49;100178.81;;;10.80;74.17
31096;BME280;17749;51.962;8.560;2023-04-06T08:41:17;100179.13;;;10.94;72.07
31096;BME280;17749;51.962;8.560;2023-04-06T08:43:47;100172.75;;;10.99;72.38
31096;BME280;17749;51.962;8.560;2023-04-06T08:46:15;100173.56;;;11.01;69.91
31096;BME280;17749;51.962;8.560;2023-04-06T08:48:42;100172.94;;;10.94;71.54
31096;BME280;17749;51.962;8.560;2023-04-06T08:51:10;100172.97;;;10.92;71.75
31096;BME280;17749;51.962;8.560;2023-04-06T08:53:38;100163.25;;;10.91;70.05
31096;BME280;17749;51.962;8.560;2023-04-06T08:56:05;100164.88;;;10.95;69.77
31096;BME280;17749;51.962;8.560;2023-04-06T08:58:35;100162.63;;;11.07;70.95
31096;BME280;17749;51.962;8.560;2023-04-06T09:01:09;100163.88;;;11.20;71.00
31096;BME280;17749;51.962;8.560;2023-04-06T09:03:39;100162.81;;;11.24;69.43
31096;BME280;17749;51.962;8.560;2023-04-06T09:06:09;100158.78;;;11.14;69.04
31096;BME280;17749;51.962;8.560;2023-04-06T09:08:38;100150.50;;;11.00;68.64
31096;BME280;17749;51.962;8.560;2023-04-06T09:11:07;100152.16;;;11.02;68.15
31096;BME280;17749;51.962;8.560;2023-04-06T09:13:47;100158.53;;;11.20;67.55
31096;BME280;17749;51.962;8.560;2023-04-06T09:16:14;100155.03;;;11.40;69.57
31096;BME280;17749;51.962;8.560;2023-04-06T09:18:42;100151.09;;;11.49;67.33
31096;BME280;17749;51.962;8.560;2023-04-06T09:21:10;100149.97;;;11.54;67.52
31096;BME280;17749;51.962;8.560;2023-04-06T09:23:38;100148.69;;;11.63;67.75
31096;BME280;17749;51.962;8.560;2023-04-06T09:26:13;100146.44;;;11.74;67.77
31096;BME280;17749;51.962;8.560;2023-04-06T09:29:00;100145.34;;;11.58;65.34
31096;BME280;17749;51.962;8.560;2023-04-06T09:31:30;100151.91;;;11.71;66.71
31096;BME280;17749;51.962;8.560;2023-04-06T09:34:00;100142.31;;;11.88;67.04
31096;BME280;17749;51.962;8.560;2023-04-06T09:36:31;100132.81;;;12.01;66.79
31096;BME280;17749;51.962;8.560;2023-04-06T09:39:01;100139.91;;;12.21;66.42
31096;BME280;17749;51.962;8.560;2023-04-06T09:41:33;100139.78;;;12.43;67.24
31096;BME280;17749;51.962;8.560;2023-04-06T09:44:10;100137.75;;;12.48;65.09
31096;BME280;17749;51.962;8.560;2023-04-06T09:49:27;100130.81;;;12.63;64.02
31096;BME280;17749;51.962;8.560;2023-04-06T09:52:00;100138.59;;;12.67;63.69
31096;BME280;17749;51.962;8.560;2023-04-06T09:54:30;100132.72;;;12.78;64.56
31096;BME280;17749;51.962;8.560;2023-04-06T09:59:33;100128.75;;;13.04;62.88
31096;BME280;17749;51.962;8.560;2023-04-06T10:02:05;100131.53;;;13.20;62.86
31096;BME280;17749;51.962;8.560;2023-04-06T10:07:01;100125.44;;;13.35;62.12
31096;BME280;17749;51.962;8.560;2023-04-06T10:09:29;100126.00;;;13.42;61.64
31096;BME280;17749;51.962;8.560;2023-04-06T10:12:06;100126.78;;;13.27;59.62
31096;BME280;17749;51.962;8.560;2023-04-06T10:14:34;100116.50;;;13.18;60.18
31096;BME280;17749;51.962;8.560;2023-04-06T10:17:04;100120.66;;;13.42;61.91
31096;BME280;17749;51.962;8.560;2023-04-06T10:19:47;100117.16;;;13.75;62.22
31096;BME280;17749;51.962;8.560;2023-04-06T10:22:23;100112.72;;;13.91;61.90
31096;BME280;17749;51.962;8.560;2023-04-06T10:24:51;100113.25;;;13.98;61.38
31096;BME280;17749;51.962;8.560;2023-04-06T10:27:27;100122.59;;;14.07;62.41
31096;BME280;17749;51.962;8.560;2023-04-06T10:30:01;100118.63;;;14.14;61.42
31096;BME280;17749;51.962;8.560;2023-04-06T10:32:35;100117.44;;;14.19;61.62
31096;BME280;17749;51.962;8.560;2023-04-06T10:35:09;100118.84;;;14.42;64.17
31096;BME280;17749;51.962;8.560;2023-04-06T10:40:25;100103.56;;;14.76;59.10
31096;BME280;17749;51.962;8.560;2023-04-06T10:42:53;100111.00;;;14.71;59.71
31096;BME280;17749;51.962;8.560;2023-04-06T10:45:23;100114.72;;;14.84;60.12
31096;BME280;17749;51.962;8.560;2023-04-06T10:47:54;100101.53;;;14.96;59.54
31096;BME280;17749;51.962;8.560;2023-04-06T10:50:22;100104.47;;;15.07;60.72
31096;BME280;17749;51.962;8.560;2023-04-06T10:53:00;100100.63;;;15.11;60.09
31096;BME280;17749;51.962;8.560;2023-04-06T10:55:28;100091.41;;;15.31;59.74
31096;BME280;17749;51.962;8.560;2023-04-06T10:57:55;100097.25;;;15.38;59.48
31096;BME280;17749;51.962;8.560;2023-04-06T11:00:23;100085.19;;;15.30;58.21
31096;BME280;17749;51.962;8.560;2023-04-06T11:02:59;100099.78;;;15.10;58.32
31096;BME280;17749;51.962;8.560;2023-04-06T11:05:27;100092.59;;;15.11;58.58
31096;BME280;17749;51.962;8.560;2023-04-06T11:07:54;100088.72;;;15.01;56.59
31096;BME280;17749;51.962;8.560;2023-04-06T11:10:21;100092.38;;;15.00;57.56
31096;BME280;17749;51.962;8.560;2023-04-06T11:12:56;100086.34;;;14.96;56.34
31096;BME280;17749;51.962;8.560;2023-04-06T11:15:23;100079.38;;;14.78;55.30
31096;BME280;17749;51.962;8.560;2023-04-06T11:17:50;100085.88;;;15.04;59.05
31096;BME280;17749;51.962;8.560;2023-04-06T11:20:17;100081.28;;;15.06;55.46
31096;BME280;17749;51.962;8.560;2023-04-06T11:22:52;100083.03;;;15.07;55.65
31096;BME280;17749;51.962;8.560;2023-04-06T11:25:19;100071.44;;;15.06;54.28
31096;BME280;17749;51.962;8.560;2023-04-06T11:27:46;100071.88;;;15.29;56.33
31096;BME280;17749;51.962;8.560;2023-04-06T11:30:14;100080.03;;;15.56;55.48
31096;BME280;17749;51.962;8.560;2023-04-06T11:32:43;100081.09;;;15.69;55.54
31096;BME280;17749;51.962;8.560;2023-04-06T11:35:21;100079.47;;;15.51;52.95
31096;BME280;17749;51.962;8.560;2023-04-06T11:37:51;100072.19;;;15.39;54.63
31096;BME280;17749;51.962;8.560;2023-04-06T11:40:23;100078.78;;;15.33;52.58
31096;BME280;17749;51.962;8.560;2023-04-06T11:42:52;100068.59;;;15.24;53.93
31096;BME280;17749;51.962;8.560;2023-04-06T11:45:20;100068.56;;;15.09;52.20
31096;BME280;17749;51.962;8.560;2023-04-06T11:47:56;100063.28;;;15.08;54.50
31096;BME280;17749;51.962;8.560;2023-04-06T11:50:24;100072.09;;;15.10;53.13
31096;BME280;17749;51.962;8.560;2023-04-06T11:52:58;100064.09;;;15.24;51.95
31096;BME280;17749;51.962;8.560;2023-04-06T11:55:37;100064.09;;;15.24;51.14
31096;BME280;17749;51.962;8.560;2023-04-06T11:58:05;100057.97;;;15.37;52.80
31096;BME280;17749;51.962;8.560;2023-04-06T12:00:33;100067.66;;;15.39;51.04
31096;BME280;17749;51.962;8.560;2023-04-06T12:03:01;100056.78;;;15.12;50.05
31096;BME280;17749;51.962;8.560;2023-04-06T12:05:28;100051.03;;;15.04;50.29
31096;BME280;17749;51.962;8.560;2023-04-06T12:07:55;100056.94;;;15.09;50.73
31096;BME280;17749;51.962;8.560;2023-04-06T12:10:26;100048.22;;;15.05;50.23
31096;BME280;17749;51.962;8.560;2023-04-06T12:12:53;100048.69;;;14.98;49.19
31096;BME280;17749;51.962;8.560;2023-04-06T12:15:20;100048.38;;;15.18;50.69
31096;BME280;17749;51.962;8.560;2023-04-06T12:17:48;100053.84;;;15.31;51.22
31096;BME280;17749;51.962;8.560;2023-04-06T12:20:16;100053.84;;;15.31;50.65
31096;BME280;17749;51.962;8.560;2023-04-06T12:22:52;100054.16;;;15.41;50.04
31096;BME280;17749;51.962;8.560;2023-04-06T12:25:19;100055.88;;;15.42;49.04
31096;BME280;17749;51.962;8.560;2023-04-06T12:27:46;100041.50;;;15.43;49.37
31096;BME280;17749;51.962;8.560;2023-04-06T12:30:14;100050.66;;;15.24;48.93
31096;BME280;17749;51.962;8.560;2023-04-06T12:32:42;100044.72;;;15.19;49.19
31096;BME280;17749;51.962;8.560;2023-04-06T12:35:09;100047.50;;;15.18;47.16
31096;BME280;17749;51.962;8.560;2023-04-06T12:37:38;100045.47;;;15.07;47.84
31096;BME280;17749;51.962;8.560;2023-04-06T12:40:05;100054.44;;;15.06;50.08
31096;BME280;17749;51.962;8.560;2023-04-06T12:42:33;100049.91;;;14.92;47.54
31096;BME280;17749;51.962;8.560;2023-04-06T12:45:00;100061.19;;;14.83;47.38
31096;BME280;17749;51.962;8.560;2023-04-06T12:47:26;100043.09;;;14.86;49.56
31096;BME280;17749;51.962;8.560;2023-04-06T12:49:55;100040.16;;;14.91;47.84
31096;BME280;17749;51.962;8.560;2023-04-06T12:52:22;100050.97;;;14.89;50.25
31096;BME280;17749;51.962;8.560;2023-04-06T12:54:49;100039.81;;;14.81;50.85
31096;BME280;17749;51.962;8.560;2023-04-06T12:57:17;100046.50;;;14.74;49.06
31096;BME280;17749;51.962;8.560;2023-04-06T12:59:44;100029.97;;;14.82;51.42
31096;BME280;17749;51.962;8.560;2023-04-06T13:02:11;100033.50;;;14.82;50.39
31096;BME280;17749;51.962;8.560;2023-04-06T13:04:38;100027.53;;;14.77;50.90
31096;BME280;17749;51.962;8.560;2023-04-06T13:07:05;100031.19;;;14.76;50.71
31096;BME280;17749;51.962;8.560;2023-04-06T13:09:32;100037.84;;;14.69;51.22
31096;BME280;17749;51.962;8.560;2023-04-06T13:11:59;100039.44;;;14.57;51.72
31096;BME280;17749;51.962;8.560;2023-04-06T13:14:27;100039.50;;;14.40;52.06
31096;BME280;17749;51.962;8.560;2023-04-06T13:16:54;100035.00;;;14.40;53.22
31096;BME280;17749;51.962;8.560;2023-04-06T13:19:22;100031.72;;;14.35;50.46
31096;BME280;17749;51.962;8.560;2023-04-06T13:21:49;100019.97;;;14.06;49.86
31096;BME280;17749;51.962;8.560;2023-04-06T13:24:16;100021.88;;;14.04;50.58
31096;BME280;17749;51.962;8.560;2023-04-06T13:26:43;100027.59;;;14.14;51.21
31096;BME280;17749;51.962;8.560;2023-04-06T13:29:10;100024.28;;;14.09;49.94
31096;BME280;17749;51.962;8.560;2023-04-06T13:31:37;100019.72;;;14.11;52.35
31096;BME280;17749;51.962;8.560;2023-04-06T13:34:06;100024.91;;;14.14;52.70
31096;BME280;17749;51.962;8.560;2023-04-06T13:36:33;100022.84;;;14.19;51.64
31096;BME280;17749;51.962;8.560;2023-04-06T13:39:00;100026.78;;;14.12;51.49
31096;BME280;17749;51.962;8.560;2023-04-06T13:41:27;100023.63;;;14.05;51.87
31096;BME280;17749;51.962;8.560;2023-04-06T13:43:53;100014.63;;;14.06;50.95
31096;BME280;17749;51.962;8.560;2023-04-06T13:46:21;100005.97;;;14.17;52.68
31096;BME280;17749;51.962;8.560;2023-04-06T13:48:50;100013.75;;;14.21;52.73
31096;BME280;17749;51.962;8.560;2023-04-06T13:51:18;100003.72;;;14.25;53.04
31096;BME280;17749;51.962;8.560;2023-04-06T13:53:45;100008.59;;;14.18;51.28
31096;BME280;17749;51.962;8.560;2023-04-06T13:56:12;100004.63;;;14.10;50.68
31096;BME280;17749;51.962;8.560;2023-04-06T13:58:39;100005.06;;;14.02;50.95
31096;BME280;17749;51.962;8.560;2023-04-06T14:01:08;100003.59;;;13.96;50.71
31096;BME280;17749;51.962;8.560;2023-04-06T14:03:37;100007.38;;;13.92;52.08
31096;BME280;17749;51.962;8.560;2023-04-06T14:06:13;100008.75;;;13.99;53.42
31096;BME280;17749;51.962;8.560;2023-04-06T14:08:56;99999.78;;;14.00;53.34
31096;BME280;17749;51.962;8.560;2023-04-06T14:11:23;100001.34;;;14.05;53.68
31096;BME280;17749;51.962;8.560;2023-04-06T14:13:50;100001.84;;;13.95;52.08
31096;BME280;17749;51.962;8.560;2023-04-06T14:16:17;100005.53;;;13.93;53.13
31096;BME280;17749;51.962;8.560;2023-04-06T14:18:46;99999.34;;;13.92;53.50
31096;BME280;17749;51.962;8.560;2023-04-06T14:21:13;100004.06;;;13.87;53.12
31096;BME280;17749;51.962;8.560;2023-04-06T14:23:40;100000.63;;;13.85;53.78
31096;BME280;17749;51.962;8.560;2023-04-06T14:26:08;99998.13;;;13.82;54.08
31096;BME280;17749;51.962;8.560;2023-04-06T14:28:35;99992.94;;;13.79;54.91
31096;BME280;17749;51.962;8.560;2023-04-06T14:31:10;99993.88;;;13.78;55.28
31096;BME280;17749;51.962;8.560;2023-04-06T14:36:39;99983.53;;;13.88;56.48
31096;BME280;17749;51.962;8.560;2023-04-06T14:39:07;99990.34;;;13.93;55.91
31096;BME280;17749;51.962;8.560;2023-04-06T14:41:34;99981.81;;;14.02;55.90
31096;BME280;17749;51.962;8.560;2023-04-06T14:44:01;99983.09;;;14.11;56.42
31096;BME280;17749;51.962;8.560;2023-04-06T14:46:29;99983.19;;;14.10;55.82
31096;BME280;17749;51.962;8.560;2023-04-06T14:48:57;99977.66;;;14.13;56.19
31096;BME280;17749;51.962;8.560;2023-04-06T14:51:25;99981.13;;;14.15;56.08
31096;BME280;17749;51.962;8.560;2023-04-06T14:53:53;99979.53;;;14.27;56.31
31096;BME280;17749;51.962;8.560;2023-04-06T14:56:23;99978.00;;;14.38;57.27
31096;BME280;17749;51.962;8.560;2023-04-06T14:58:50;99977.09;;;14.54;56.33
31096;BME280;17749;51.962;8.560;2023-04-06T15:01:19;99968.28;;;14.52;55.00
31096;BME280;17749;51.962;8.560;2023-04-06T15:03:47;99974.34;;;14.39;52.71
31096;BME280;17749;51.962;8.560;2023-04-06T15:06:15;99970.88;;;14.37;54.25
31096;BME280;17749;51.962;8.560;2023-04-06T15:08:43;99973.50;;;14.39;54.64
31096;BME280;17749;51.962;8.560;2023-04-06T15:11:11;99965.19;;;14.28;52.73
31096;BME280;17749;51.962;8.560;2023-04-06T15:13:39;99960.75;;;14.12;52.52
31096;BME280;17749;51.962;8.560;2023-04-06T15:16:07;99964.88;;;14.18;53.09
31096;BME280;17749;51.962;8.560;2023-04-06T15:18:34;99968.91;;;14.25;53.72
31096;BME280;17749;51.962;8.560;2023-04-06T15:21:02;99960.13;;;14.23;53.86
31096;BME280;17749;51.962;8.560;2023-04-06T15:23:29;99960.19;;;14.37;54.38
31096;BME280;17749;51.962;8.560;2023-04-06T15:25:57;99962.66;;;14.40;54.04
31096;BME280;17749;51.962;8.560;2023-04-06T15:28:24;99963.88;;;14.35;54.12
31096;BME280;17749;51.962;8.560;2023-04-06T15:30:51;99973.00;;;14.16;53.76
31096;BME280;17749;51.962;8.560;2023-04-06T15:33:20;99958.47;;;14.20;55.28
31096;BME280;17749;51.962;8.560;2023-04-06T15:35:47;99961.91;;;14.22;55.46
31096;BME280;17749;51.962;8.560;2023-04-06T15:38:14;99958.31;;;14.23;55.91
31096;BME280;17749;51.962;8.560;2023-04-06T15:40:44;99954.91;;;14.20;54.98
31096;BME280;17749;51.962;8.560;2023-04-06T15:43:12;99958.22;;;14.09;54.68
31096;BME280;17749;51.962;8.560;2023-04-06T15:45:39;99955.38;;;14.12;56.05
31096;BME280;17749;51.962;8.560;2023-04-06T15:48:07;99959.19;;;14.08;55.23
31096;BME280;17749;51.962;8.560;2023-04-06T15:50:35;99948.38;;;14.10;56.59
31096;BME280;17749;51.962;8.560;2023-04-06T15:53:02;99952.59;;;14.14;57.19
31096;BME280;17749;51.962;8.560;2023-04-06T15:55:29;99953.38;;;14.16;56.99
31096;BME280;17749;51.962;8.560;2023-04-06T15:57:56;99951.06;;;14.10;55.63
31096;BME280;17749;51.962;8.560;2023-04-06T16:00:23;99952.09;;;14.07;55.67
31096;BME280;17749;51.962;8.560;2023-04-06T16:02:51;99949.13;;;14.12;57.29
31096;BME280;17749;51.962;8.560;2023-04-06T16:05:18;99958.91;;;14.13;56.93
31096;BME280;17749;51.962;8.560;2023-04-06T16:07:45;99960.75;;;14.12;56.93
31096;BME280;17749;51.962;8.560;2023-04-06T16:10:12;99952.09;;;14.07;56.75
31096;BME280;17749;51.962;8.560;2023-04-06T16:12:39;99957.78;;;14.01;56.39
31096;BME280;17749;51.962;8.560;2023-04-06T16:15:08;99960.91;;;13.93;55.70
31096;BME280;17749;51.962;8.560;2023-04-06T16:17:35;99957.59;;;13.88;57.02
31096;BME280;17749;51.962;8.560;2023-04-06T16:20:02;99953.56;;;13.81;56.55
31096;BME280;17749;51.962;8.560;2023-04-06T16:22:29;99960.72;;;13.80;57.99
31096;BME280;17749;51.962;8.560;2023-04-06T16:24:56;99949.16;;;13.80;58.10
31096;BME280;17749;51.962;8.560;2023-04-06T16:27:23;99955.72;;;13.74;58.59
31096;BME280;17749;51.962;8.560;2023-04-06T16:29:50;99954.41;;;13.66;57.90
31096;BME280;17749;51.962;8.560;2023-04-06T16:32:17;99952.69;;;13.65;58.56
31096;BME280;17749;51.962;8.560;2023-04-06T16:34:44;99956.56;;;13.59;58.49
31096;BME280;17749;51.962;8.560;2023-04-06T16:37:12;99946.88;;;13.56;58.96
31096;BME280;17749;51.962;8.560;2023-04-06T16:39:39;99952.25;;;13.56;59.71
31096;BME280;17749;51.962;8.560;2023-04-06T16:42:06;99945.34;;;13.52;58.63
31096;BME280;17749;51.962;8.560;2023-04-06T16:44:33;99950.50;;;13.40;57.59
31096;BME280;17749;51.962;8.560;2023-04-06T16:47:01;99948.53;;;13.26;57.27
31096;BME280;17749;51.962;8.560;2023-04-06T16:49:29;99942.63;;;13.19;58.04
31096;BME280;17749;51.962;8.560;2023-04-06T16:51:56;99945.16;;;13.22;58.69
31096;BME280;17749;51.962;8.560;2023-04-06T16:54:27;99955.78;;;13.24;59.37
31096;BME280;17749;51.962;8.560;2023-04-06T16:56:54;99948.84;;;13.20;58.50
31096;BME280;17749;51.962;8.560;2023-04-06T16:59:22;99941.97;;;13.15;59.38
31096;BME280;17749;51.962;8.560;2023-04-06T17:01:48;99941.78;;;13.19;60.21
31096;BME280;17749;51.962;8.560;2023-04-06T17:04:16;99951.84;;;13.13;58.68
31096;BME280;17749;51.962;8.560;2023-04-06T17:06:43;99942.44;;;13.06;59.46
31096;BME280;17749;51.962;8.560;2023-04-06T17:09:10;99944.94;;;13.09;60.78
31096;BME280;17749;51.962;8.560;2023-04-06T17:11:38;99946.97;;;13.04;60.90
31096;BME280;17749;51.962;8.560;2023-04-06T17:14:13;99944.31;;;13.04;61.95
31096;BME280;17749;51.962;8.560;2023-04-06T17:16:40;99941.56;;;13.06;62.68
31096;BME280;17749;51.962;8.560;2023-04-06T17:19:07;99937.59;;;12.97;61.18
31096;BME280;17749;51.962;8.560;2023-04-06T17:21:34;99941.50;;;12.90;62.59
31096;BME280;17749;51.962;8.560;2023-04-06T17:24:01;99938.38;;;12.82;62.37
31096;BME280;17749;51.962;8.560;2023-04-06T17:26:28;99951.13;;;12.77;63.19
31096;BME280;17749;51.962;8.560;2023-04-06T17:28:55;99952.38;;;12.69;63.22
31096;BME280;17749;51.962;8.560;2023-04-06T17:31:21;99955.19;;;12.66;64.43
31096;BME280;17749;51.962;8.560;2023-04-06T17:33:48;99966.66;;;12.51;65.60
31096;BME280;17749;51.962;8.560;2023-04-06T17:36:15;99965.06;;;12.47;66.35
31096;BME280;17749;51.962;8.560;2023-04-06T17:38:44;99970.03;;;12.37;67.90
31096;BME280;17749;51.962;8.560;2023-04-06T17:41:12;99965.97;;;12.28;68.58
31096;BME280;17749;51.962;8.560;2023-04-06T17:43:39;99973.22;;;12.26;69.58
31096;BME280;17749;51.962;8.560;2023-04-06T17:46:06;99973.34;;;12.23;70.31
31096;BME280;17749;51.962;8.560;2023-04-06T17:48:34;99975.25;;;12.21;71.16
31096;BME280;17749;51.962;8.560;2023-04-06T17:51:01;99983.47;;;12.17;71.59
31096;BME280;17749;51.962;8.560;2023-04-06T17:53:28;99988.13;;;12.13;72.69
31096;BME280;17749;51.962;8.560;2023-04-06T17:56:03;99984.81;;;12.08;73.55
31096;BME280;17749;51.962;8.560;2023-04-06T17:58:30;99986.66;;;12.06;73.64
31096;BME280;17749;51.962;8.560;2023-04-06T18:00:57;99985.81;;;11.87;73.51
31096;BME280;17749;51.962;8.560;2023-04-06T18:03:24;99990.53;;;11.80;73.94
31096;BME280;17749;51.962;8.560;2023-04-06T18:05:51;99990.03;;;11.72;74.50
31096;BME280;17749;51.962;8.560;2023-04-06T18:08:18;99991.97;;;11.68;75.48
31096;BME280;17749;51.962;8.560;2023-04-06T18:10:45;99994.72;;;11.67;76.16
31096;BME280;17749;51.962;8.560;2023-04-06T18:13:14;100004.78;;;11.60;76.17
31096;BME280;17749;51.962;8.560;2023-04-06T18:15:41;99994.56;;;11.51;76.95